createdAt,value
2022-12-14T00:00:02.220Z,61.74
2022-12-14T00:03:10.181Z,63.40
2022-12-14T00:05:58.026Z,62.50
2022-12-14T00:08:47.959Z,60.50
2022-12-14T00:11:35.736Z,57.45
2022-12-14T00:14:23.872Z,58.59
2022-12-14T00:17:11.494Z,60.60
2022-12-14T00:19:59.245Z,63.55
2022-12-14T00:22:47.046Z,64.03
2022-12-14T00:25:34.974Z,61.09
2022-12-14T00:28:26.567Z,58.68
2022-12-14T00:31:15.460Z,59.14
2022-12-14T00:34:03.156Z,62.13
2022-12-14T00:36:51.048Z,63.17
2022-12-14T00:39:38.811Z,61.22
2022-12-14T00:42:26.244Z,59.76
2022-12-14T00:45:13.904Z,57.34
2022-12-14T00:48:02.459Z,58.70
2022-12-14T00:50:52.046Z,61.51
2022-12-14T00:53:41.020Z,63.27
2022-12-14T00:56:29.258Z,63.50
2022-12-14T00:59:21.768Z,60.59
2022-12-14T01:02:13.934Z,57.98
2022-12-14T01:05:01.663Z,56.88
2022-12-14T01:07:49.176Z,59.78
2022-12-14T01:10:40.596Z,62.23
2022-12-14T01:13:28.813Z,63.94
2022-12-14T01:16:17.717Z,63.04
2022-12-14T01:19:06.028Z,61.51
2022-12-14T01:21:53.912Z,58.43
2022-12-14T01:24:44.618Z,56.24
2022-12-14T01:27:32.487Z,58.61
2022-12-14T01:30:20.386Z,62.02
2022-12-14T01:33:08.263Z,63.46
2022-12-14T01:35:55.680Z,63.24
2022-12-14T01:38:44.515Z,62.64
2022-12-14T01:42:01.594Z,60.51
2022-12-14T01:44:57.078Z,56.67
2022-12-14T01:47:51.870Z,56.60
2022-12-14T01:50:44.012Z,58.93
2022-12-14T01:53:31.809Z,62.05
2022-12-14T01:56:19.836Z,63.99
2022-12-14T01:59:16.399Z,63.29
2022-12-14T02:02:08.090Z,63.30
2022-12-14T02:05:01.764Z,61.62
2022-12-14T02:07:52.992Z,57.92
2022-12-14T02:10:41.422Z,56.18
2022-12-14T02:13:35.542Z,56.82
2022-12-14T02:16:23.596Z,60.27
2022-12-14T02:19:11.165Z,62.87
2022-12-14T02:22:35.754Z,65.60
2022-12-14T02:25:58.469Z,66.05
2022-12-14T02:29:17.128Z,63.80
2022-12-14T02:32:36.667Z,61.52
2022-12-14T02:35:46.948Z,59.70
2022-12-14T02:38:49.800Z,54.15
2022-12-14T02:41:49.294Z,56.48
2022-12-14T02:44:39.981Z,58.97
2022-12-14T02:48:02.900Z,61.39
2022-12-14T02:51:25.002Z,64.84
2022-12-14T02:54:32.385Z,63.09
2022-12-14T02:57:27.699Z,59.26
2022-12-14T03:00:16.009Z,58.54
2022-12-14T03:03:06.023Z,60.37
2022-12-14T03:06:14.926Z,63.32
2022-12-14T03:09:17.652Z,64.13
2022-12-14T03:12:11.633Z,63.12
2022-12-14T03:15:00.787Z,61.77
2022-12-14T03:17:53.888Z,60.69
2022-12-14T03:20:45.017Z,59.92
2022-12-14T03:23:37.535Z,57.33
2022-12-14T03:26:41.701Z,55.83
2022-12-14T03:29:42.063Z,58.52
2022-12-14T03:32:32.569Z,62.07
2022-12-14T03:35:29.184Z,64.38
2022-12-14T03:38:27.163Z,64.39
2022-12-14T03:41:18.594Z,63.28
2022-12-14T03:44:15.696Z,60.50
2022-12-14T03:47:15.319Z,56.97
2022-12-14T03:50:17.599Z,57.75
2022-12-14T03:53:34.167Z,61.48
2022-12-14T03:56:24.554Z,63.69
2022-12-14T03:59:39.906Z,63.05
2022-12-14T04:02:41.216Z,62.15
2022-12-14T04:05:41.714Z,58.09
2022-12-14T04:08:53.141Z,56.49
2022-12-14T04:12:08.322Z,59.82
2022-12-14T04:15:23.229Z,64.01
2022-12-14T04:18:37.501Z,63.97
2022-12-14T04:21:59.264Z,62.26
2022-12-14T04:25:15.479Z,59.10
2022-12-14T04:28:31.929Z,58.65
2022-12-14T04:31:23.866Z,57.60
2022-12-14T04:34:15.524Z,56.10
2022-12-14T04:37:10.802Z,55.20
2022-12-14T04:40:36.483Z,55.78
2022-12-14T04:43:30.253Z,56.25
2022-12-14T04:46:23.513Z,55.90
2022-12-14T04:49:16.898Z,55.33
2022-12-14T04:52:23.361Z,54.52
2022-12-14T04:55:56.968Z,54.32
2022-12-14T04:58:44.628Z,53.73
2022-12-14T05:01:41.112Z,52.40
2022-12-14T05:05:19.075Z,53.57
2022-12-14T05:08:45.945Z,54.19
2022-12-14T05:15:02.896Z,53.56
2022-12-14T05:17:50.923Z,53.56
2022-12-14T05:20:38.367Z,52.52
2022-12-14T05:23:26.019Z,52.66
2022-12-14T05:26:14.001Z,52.92
2022-12-14T05:29:01.635Z,53.09
2022-12-14T05:31:51.000Z,52.61
2022-12-14T05:34:39.055Z,52.82
2022-12-14T05:37:26.699Z,52.72
2022-12-14T05:40:14.656Z,52.74
2022-12-14T05:43:12.325Z,52.43
2022-12-14T05:46:04.962Z,51.86
2022-12-14T05:48:52.700Z,51.79
2022-12-14T05:51:40.703Z,52.04
2022-12-14T05:54:28.478Z,52.10
2022-12-14T05:57:16.266Z,52.00
2022-12-14T06:00:06.547Z,51.94
2022-12-14T06:02:55.678Z,52.21
2022-12-14T06:05:43.230Z,51.75
2022-12-14T06:08:33.943Z,52.11
2022-12-14T06:11:23.802Z,51.76
2022-12-14T06:14:12.647Z,52.09
2022-12-14T06:17:00.414Z,52.29
2022-12-14T06:19:50.044Z,52.32
2022-12-14T06:22:42.785Z,51.74
2022-12-14T06:25:33.264Z,51.49
2022-12-14T06:28:20.850Z,50.81
2022-12-14T06:31:18.134Z,50.04
2022-12-14T06:34:06.417Z,50.41
2022-12-14T06:36:54.236Z,50.72
2022-12-14T06:39:42.017Z,49.97
2022-12-14T06:42:31.455Z,49.65
2022-12-14T06:45:18.867Z,49.18
2022-12-14T06:48:07.039Z,48.74
2022-12-14T06:51:04.525Z,48.79
2022-12-14T06:53:57.523Z,48.30
2022-12-14T06:56:47.404Z,48.77
2022-12-14T06:59:35.262Z,49.29
2022-12-14T07:02:22.968Z,49.32
2022-12-14T07:05:10.855Z,49.45
2022-12-14T07:07:58.353Z,49.57
2022-12-14T07:10:46.044Z,49.42
2022-12-14T07:13:33.808Z,49.69
2022-12-14T07:16:26.561Z,49.56
2022-12-14T07:19:14.313Z,48.76
2022-12-14T07:22:04.314Z,48.44
2022-12-14T07:24:52.040Z,48.00
2022-12-14T07:27:40.001Z,48.25
2022-12-14T07:30:27.586Z,48.08
2022-12-14T07:33:15.215Z,48.17
2022-12-14T07:36:10.715Z,47.98
2022-12-14T07:38:58.396Z,48.52
2022-12-14T07:41:49.019Z,48.37
2022-12-14T07:44:41.567Z,47.95
2022-12-14T07:47:31.923Z,47.17
2022-12-14T07:50:19.394Z,46.46
2022-12-14T07:53:06.990Z,45.68
2022-12-14T07:55:54.943Z,45.10
2022-12-14T07:58:42.510Z,44.88
2022-12-14T08:01:36.069Z,44.93
2022-12-14T08:04:24.100Z,44.63
2022-12-14T08:07:11.922Z,44.50
2022-12-14T08:09:59.721Z,44.68
2022-12-14T08:12:50.442Z,44.16
2022-12-14T08:15:38.681Z,45.06
2022-12-14T08:18:26.380Z,46.02
2022-12-14T08:21:20.991Z,47.29
2022-12-14T08:24:12.433Z,49.84
2022-12-14T08:26:59.844Z,49.96
2022-12-14T08:29:47.244Z,50.98
2022-12-14T08:32:35.056Z,50.19
2022-12-14T08:35:22.993Z,47.87
2022-12-14T08:38:10.539Z,49.16
2022-12-14T08:41:06.236Z,51.91
2022-12-14T08:44:00.817Z,51.61
2022-12-14T08:46:48.582Z,54.78
2022-12-14T08:49:36.332Z,55.20
2022-12-14T08:52:23.703Z,53.79
2022-12-14T08:55:11.564Z,50.80
2022-12-14T08:57:59.564Z,48.68
2022-12-14T09:00:47.010Z,50.83
2022-12-14T09:03:35.519Z,50.44
2022-12-14T09:06:29.348Z,51.44
2022-12-14T09:09:17.166Z,50.83
2022-12-14T09:12:07.658Z,50.93
2022-12-14T09:14:55.331Z,49.36
2022-12-14T09:17:42.936Z,46.69
2022-12-14T09:20:30.395Z,46.78
2022-12-14T09:23:18.107Z,44.26
2022-12-14T09:26:27.604Z,43.00
2022-12-14T09:29:17.675Z,43.49
2022-12-14T09:32:05.502Z,44.38
2022-12-14T09:34:53.535Z,43.56
2022-12-14T09:37:41.384Z,41.27
2022-12-14T09:40:31.585Z,40.14
2022-12-14T09:43:44.067Z,39.79
2022-12-14T09:47:19.333Z,38.91
2022-12-14T09:50:18.421Z,38.36
2022-12-14T09:53:13.171Z,38.00
2022-12-14T09:56:00.988Z,39.66
2022-12-14T09:58:59.550Z,38.02
2022-12-14T10:02:32.579Z,37.48
2022-12-14T10:05:57.226Z,36.53
2022-12-14T10:08:59.703Z,37.37
2022-12-14T10:12:00.406Z,36.92
2022-12-14T10:15:08.981Z,35.78
2022-12-14T10:19:02.951Z,34.32
2022-12-14T10:22:12.490Z,33.54
2022-12-14T10:25:25.057Z,33.99
2022-12-14T10:28:30.794Z,35.32
2022-12-14T10:31:41.152Z,33.98
2022-12-14T10:34:32.562Z,34.48
2022-12-14T10:37:27.051Z,36.44
2022-12-14T10:40:34.701Z,38.95
2022-12-14T10:43:42.657Z,42.26
2022-12-14T10:47:01.310Z,45.03
2022-12-14T10:50:22.688Z,47.64
2022-12-14T10:53:19.828Z,50.80
2022-12-14T10:56:19.173Z,53.68
2022-12-14T10:59:22.260Z,55.85
2022-12-14T11:02:21.446Z,58.42
2022-12-14T11:05:45.454Z,60.13
2022-12-14T11:08:48.092Z,61.89
2022-12-14T11:11:36.365Z,60.93
2022-12-14T11:14:24.751Z,57.02
2022-12-14T11:17:43.479Z,58.66
2022-12-14T11:20:33.666Z,60.32
2022-12-14T11:23:30.612Z,61.97
2022-12-14T11:26:38.054Z,61.91
2022-12-14T11:29:34.291Z,61.97
2022-12-14T11:32:25.708Z,62.43
2022-12-14T11:35:19.546Z,60.61
2022-12-14T11:38:15.814Z,56.18
2022-12-14T11:41:10.724Z,56.88
2022-12-14T11:44:16.255Z,58.52
2022-12-14T11:47:14.148Z,60.04
2022-12-14T11:50:01.913Z,60.54
2022-12-14T11:52:49.403Z,61.28
2022-12-14T11:55:40.750Z,62.03
2022-12-14T11:58:34.067Z,62.19
2022-12-14T12:01:26.820Z,62.17
2022-12-14T12:04:17.583Z,61.87
2022-12-14T12:07:55.010Z,58.25
2022-12-14T12:10:50.162Z,57.05
2022-12-14T12:13:42.384Z,57.86
2022-12-14T12:16:32.962Z,58.94
2022-12-14T12:19:34.958Z,58.40
2022-12-14T12:22:22.626Z,58.83
2022-12-14T12:25:36.802Z,58.60
2022-12-14T12:28:36.530Z,57.94
2022-12-14T12:31:35.301Z,58.76
2022-12-14T12:35:12.471Z,59.64
2022-12-14T12:38:37.291Z,61.19
2022-12-14T12:41:57.153Z,62.76
2022-12-14T12:44:55.553Z,57.88
2022-12-14T12:48:13.427Z,56.54
2022-12-14T12:51:06.349Z,59.86
2022-12-14T12:54:08.893Z,62.24
2022-12-14T12:57:00.456Z,61.81
2022-12-14T12:59:52.746Z,55.49
2022-12-14T13:02:50.366Z,55.91
2022-12-14T13:05:46.773Z,59.23
2022-12-14T13:08:41.120Z,61.13
2022-12-14T13:11:35.511Z,62.73
2022-12-14T13:14:43.149Z,59.53
2022-12-14T13:17:45.766Z,55.90
2022-12-14T13:20:37.093Z,59.02
2022-12-14T13:23:45.431Z,62.00
2022-12-14T13:27:17.110Z,62.30
2022-12-14T13:30:43.483Z,57.00
2022-12-14T13:33:58.943Z,59.90
2022-12-14T13:37:10.457Z,62.98
2022-12-14T13:40:23.566Z,58.06
2022-12-14T13:43:56.578Z,57.38
2022-12-14T13:46:44.455Z,60.73
2022-12-14T13:49:33.553Z,63.25
2022-12-14T13:52:38.780Z,62.29
2022-12-14T13:55:29.441Z,54.26
2022-12-14T13:58:42.647Z,56.58
2022-12-14T14:01:48.981Z,60.82
2022-12-14T14:04:36.611Z,63.18
2022-12-14T14:07:24.360Z,58.26
2022-12-14T14:10:28.551Z,56.38
2022-12-14T14:13:28.227Z,59.96
2022-12-14T14:16:37.660Z,62.91
2022-12-14T14:19:28.670Z,62.61
2022-12-14T14:22:24.177Z,54.99
2022-12-14T14:25:34.430Z,55.76
2022-12-14T14:28:30.179Z,59.98
2022-12-14T14:31:17.968Z,63.47
2022-12-14T14:34:05.785Z,62.91
2022-12-14T14:36:54.575Z,56.91
2022-12-14T14:40:04.849Z,55.81
2022-12-14T14:43:06.864Z,60.52
2022-12-14T14:46:01.415Z,63.48
2022-12-14T14:48:54.769Z,61.39
2022-12-14T14:51:42.887Z,56.56
2022-12-14T14:55:07.030Z,57.66
2022-12-14T14:58:05.588Z,62.55
2022-12-14T15:01:03.005Z,64.22
2022-12-14T15:04:15.698Z,59.96
2022-12-14T15:07:15.429Z,57.26
2022-12-14T15:10:31.165Z,60.89
2022-12-14T15:13:25.102Z,64.51
2022-12-14T15:16:33.686Z,62.99
2022-12-14T15:19:33.615Z,57.54
2022-12-14T15:22:26.266Z,59.56
2022-12-14T15:25:29.720Z,63.76
2022-12-14T15:28:23.064Z,62.18
2022-12-14T15:31:11.010Z,58.93
2022-12-14T15:34:00.293Z,60.51
2022-12-14T15:36:48.980Z,64.09
2022-12-14T15:39:40.305Z,62.98
2022-12-14T15:42:28.330Z,59.21
2022-12-14T15:45:25.457Z,53.41
2022-12-14T15:48:36.426Z,57.13
2022-12-14T15:51:33.029Z,62.59
2022-12-14T15:54:24.960Z,63.17
2022-12-14T15:57:20.033Z,58.19
2022-12-14T16:00:11.689Z,56.31
2022-12-14T16:03:01.496Z,60.82
2022-12-14T16:05:49.986Z,64.70
2022-12-14T16:08:47.949Z,59.45
2022-12-14T16:11:46.839Z,57.30
2022-12-14T16:14:54.779Z,61.86
2022-12-14T16:17:44.593Z,65.37
2022-12-14T16:20:38.444Z,57.98
2022-12-14T16:23:40.454Z,57.74
2022-12-14T16:26:38.639Z,62.82
2022-12-14T16:29:34.021Z,64.34
2022-12-14T16:32:23.469Z,58.29
2022-12-14T16:35:33.054Z,59.69
2022-12-14T16:38:20.946Z,63.02
2022-12-14T16:41:09.598Z,65.43
2022-12-14T16:44:00.681Z,60.62
2022-12-14T16:47:03.132Z,58.41
2022-12-14T16:49:52.097Z,57.17
2022-12-14T16:52:40.802Z,61.50
2022-12-14T16:55:29.057Z,64.08
2022-12-14T16:58:18.694Z,61.95
2022-12-14T17:01:09.426Z,60.66
2022-12-14T17:04:06.952Z,58.32
2022-12-14T17:06:57.055Z,60.33
2022-12-14T17:09:45.382Z,64.95
2022-12-14T17:12:33.448Z,63.97
2022-12-14T17:15:24.945Z,61.47
2022-12-14T17:18:13.917Z,60.20
2022-12-14T17:21:02.883Z,59.20
2022-12-14T17:23:51.470Z,61.02
2022-12-14T17:26:39.411Z,64.44
2022-12-14T17:29:30.260Z,62.92
2022-12-14T17:32:19.245Z,57.57
2022-12-14T17:35:15.494Z,59.69
2022-12-14T17:38:03.310Z,63.58
2022-12-14T17:40:54.178Z,62.00
2022-12-14T17:43:49.887Z,59.60
2022-12-14T17:46:43.919Z,60.07
2022-12-14T17:49:35.595Z,62.27
2022-12-14T17:52:30.444Z,64.38
2022-12-14T17:55:25.583Z,60.01
2022-12-14T17:58:14.104Z,55.83
2022-12-14T18:01:03.606Z,59.21
2022-12-14T18:03:53.042Z,62.76
2022-12-14T18:06:41.701Z,63.65
2022-12-14T18:09:29.589Z,62.16
2022-12-14T18:12:25.264Z,59.11
2022-12-14T18:15:34.965Z,58.81
2022-12-14T18:18:27.894Z,61.52
2022-12-14T18:21:28.822Z,65.87
2022-12-14T18:24:22.696Z,65.24
2022-12-14T18:27:13.839Z,62.51
2022-12-14T18:30:01.836Z,61.34
2022-12-14T18:32:50.404Z,59.52
2022-12-14T18:35:38.250Z,58.05
2022-12-14T18:38:26.894Z,56.81
2022-12-14T18:41:21.089Z,56.97
2022-12-14T18:44:11.319Z,56.02
2022-12-14T18:47:14.704Z,56.19
2022-12-14T18:50:09.817Z,55.95
2022-12-14T18:53:00.482Z,55.08
2022-12-14T18:55:49.737Z,55.21
2022-12-14T18:58:40.522Z,55.38
2022-12-14T19:01:28.218Z,55.80
2022-12-14T19:04:16.035Z,55.33
2022-12-14T19:07:04.279Z,54.84
2022-12-14T19:09:52.063Z,55.46
2022-12-14T19:12:39.830Z,54.91
2022-12-14T19:15:34.082Z,54.23
2022-12-14T19:18:22.034Z,53.87
2022-12-14T19:21:10.152Z,54.69
2022-12-14T19:23:59.710Z,54.15
2022-12-14T19:26:49.524Z,54.12
2022-12-14T19:29:37.710Z,54.09
2022-12-14T19:32:26.220Z,53.77
2022-12-14T19:35:16.007Z,54.35
2022-12-14T19:38:06.685Z,53.64
2022-12-14T19:41:06.319Z,53.33
2022-12-14T19:43:58.072Z,53.60
2022-12-14T19:46:45.804Z,53.03
2022-12-14T19:49:34.030Z,53.75
2022-12-14T19:52:29.528Z,54.06
2022-12-14T19:55:17.773Z,53.87
2022-12-14T19:58:05.676Z,53.54
2022-12-14T20:00:53.542Z,53.68
2022-12-14T20:03:42.088Z,54.62
2022-12-14T20:06:30.073Z,54.97
2022-12-14T20:09:18.932Z,54.06
2022-12-14T20:12:10.389Z,54.40
2022-12-14T20:14:58.384Z,54.25
2022-12-14T20:17:46.155Z,54.00
2022-12-14T20:20:34.542Z,53.65
2022-12-14T20:23:22.158Z,54.11
2022-12-14T20:26:21.022Z,54.77
2022-12-14T20:29:08.969Z,54.99
2022-12-14T20:31:56.924Z,54.91
2022-12-14T20:34:45.042Z,54.68
2022-12-14T20:37:32.863Z,54.64
2022-12-14T20:40:20.658Z,54.37
2022-12-14T20:43:08.155Z,54.31
2022-12-14T20:45:55.944Z,54.39
2022-12-14T20:48:47.505Z,54.18
2022-12-14T20:51:38.732Z,53.72
2022-12-14T20:54:27.950Z,53.29
2022-12-14T20:57:15.863Z,53.48
2022-12-14T21:00:06.667Z,53.68
2022-12-14T21:02:54.722Z,54.05
2022-12-14T21:05:43.433Z,54.27
2022-12-14T21:08:31.856Z,54.92
2022-12-14T21:11:38.582Z,54.96
2022-12-14T21:14:36.246Z,54.92
2022-12-14T21:17:28.804Z,54.24
2022-12-14T21:20:16.537Z,54.28
2022-12-14T21:23:04.318Z,54.40
2022-12-14T21:25:52.109Z,53.47
2022-12-14T21:28:39.647Z,53.40
2022-12-14T21:31:27.423Z,53.44
2022-12-14T21:34:18.668Z,53.20
2022-12-14T21:37:06.267Z,53.23
2022-12-14T21:39:55.600Z,52.38
2022-12-14T21:42:43.297Z,52.56
2022-12-14T21:45:30.984Z,52.21
2022-12-14T21:48:18.998Z,52.24
2022-12-14T21:51:08.959Z,52.41
2022-12-14T21:53:59.827Z,52.67
2022-12-14T21:57:06.020Z,52.33
2022-12-14T21:59:53.748Z,52.73
2022-12-14T22:02:42.722Z,52.64
2022-12-14T22:05:30.752Z,52.79
2022-12-14T22:08:19.085Z,52.96
2022-12-14T22:11:06.578Z,53.22
2022-12-14T22:13:54.569Z,53.69
2022-12-14T22:16:43.267Z,53.77
2022-12-14T22:19:31.709Z,53.53
2022-12-14T22:22:19.606Z,53.55
2022-12-14T22:25:08.192Z,53.73
2022-12-14T22:27:56.007Z,54.33
2022-12-14T22:30:43.941Z,54.51
2022-12-14T22:33:32.417Z,54.18
2022-12-14T22:36:23.346Z,54.36
2022-12-14T22:39:11.102Z,54.70
2022-12-14T22:41:58.704Z,54.95
2022-12-14T22:44:48.958Z,54.71
2022-12-14T22:47:36.284Z,54.52
2022-12-14T22:50:24.176Z,54.49
2022-12-14T22:53:13.057Z,53.71
2022-12-14T22:56:38.647Z,54.05
2022-12-14T22:59:41.941Z,54.04
2022-12-14T23:02:30.801Z,54.02
2022-12-14T23:05:19.008Z,53.91
2022-12-14T23:08:06.794Z,54.14
2022-12-14T23:11:13.183Z,54.12
2022-12-14T23:14:19.679Z,54.09
2022-12-14T23:17:26.295Z,53.96
2022-12-14T23:20:32.595Z,53.81
2022-12-14T23:23:39.197Z,54.22
2022-12-14T23:26:46.370Z,54.13
2022-12-14T23:29:52.609Z,53.92
2022-12-14T23:32:59.383Z,53.86
2022-12-14T23:36:05.358Z,54.15
2022-12-14T23:39:11.346Z,54.00
2022-12-14T23:42:17.622Z,54.19
2022-12-14T23:45:25.277Z,53.84
2022-12-14T23:48:32.674Z,53.85
2022-12-14T23:51:39.057Z,53.66
2022-12-14T23:54:45.401Z,53.82
2022-12-14T23:57:51.882Z,53.71
